Time;durP1;ratioP1;P1;durP2;ratioP2;P2;SDS_P1;SDS_P2;PMS_P1;PMS_P2;Temp;Humidity;BMP_temperature;BMP_pressure;BME280_temperature;BME280_humidity;BME280_pressure;Samples;Min_cycle;Max_cycle;Signal;HPM_P1;HPM_P2
2021/10/14 00:02:28;;;;;;;;;;;;;;;16.24;75.93;102599.84;10332186;28;19929;-80
2021/10/14 00:07:28;;;;;;;;;;;;;;;16.30;76.07;102598.19;10333387;28;19940;-78
2021/10/14 00:12:28;;;;;;;;;;;;;;;16.31;76.21;102591.72;10333227;28;19957;-78
2021/10/14 00:17:28;;;;;;;;;;;;;;;16.29;76.55;102585.56;10340693;28;19914;-80
2021/10/14 00:22:28;;;;;;;;;;;;;;;16.40;76.23;102582.34;10340484;28;19921;-79
2021/10/14 00:27:29;;;;;;;;;;;;;;;16.46;76.05;102580.69;10340154;28;20004;-78
2021/10/14 00:32:29;;;;;;;;;;;;;;;16.44;76.10;102569.97;10339309;28;19914;-81
2021/10/14 00:37:29;;;;;;;;;;;;;;;16.50;75.87;102571.91;10339816;28;19922;-79
2021/10/14 00:42:29;;;;;;;;;;;;;;;16.53;75.90;102567.94;10338660;28;20267;-79
2021/10/14 00:47:30;;;;;;;;;;;;;;;16.53;76.08;102573.41;10340349;28;20037;-79
2021/10/14 00:52:30;;;;;;;;;;;;;;;16.58;75.65;102568.19;10339551;28;19926;-79
2021/10/14 00:57:30;;;;;;;;;;;;;;;16.58;75.86;102561.88;10337917;28;20432;-82
2021/10/14 01:02:30;;;;;;;;;;;;;;;16.62;75.83;102552.22;10339090;28;19918;-81
2021/10/14 01:07:31;;;;;;;;;;;;;;;16.61;75.56;102558.75;10338608;28;19918;-80
2021/10/14 01:12:31;;;;;;;;;;;;;;;16.60;76.07;102546.13;10337850;28;19914;-81
2021/10/14 01:17:31;;;;;;;;;;;;;;;16.62;75.98;102539.38;10338174;28;19918;-81
2021/10/14 01:22:31;;;;;;;;;;;;;;;16.66;75.77;102542.59;10338283;28;19922;-81
2021/10/14 01:27:31;;;;;;;;;;;;;;;16.64;75.58;102537.31;10337314;28;20013;-80
2021/10/14 01:32:32;;;;;;;;;;;;;;;16.63;75.59;102534.78;10336945;28;20305;-80
2021/10/14 01:37:32;;;;;;;;;;;;;;;16.70;75.73;102530.22;10337648;28;19917;-81
2021/10/14 01:42:32;;;;;;;;;;;;;;;16.71;75.69;102532.72;10336713;28;19918;-81
2021/10/14 01:47:33;;;;;;;;;;;;;;;16.61;75.57;102523.19;10337174;28;20270;-81
2021/10/14 01:52:33;;;;;;;;;;;;;;;16.46;75.92;102523.25;10336048;28;19933;-81
2021/10/14 01:57:34;;;;;;;;;;;;;;;16.35;76.65;102527.38;10337167;28;19921;-80
2021/10/14 02:02:34;;;;;;;;;;;;;;;16.33;76.80;102526.72;10338407;28;19921;-81
2021/10/14 02:07:34;;;;;;;;;;;;;;;16.43;76.64;102524.53;10338228;28;19918;-81
2021/10/14 02:12:35;;;;;;;;;;;;;;;16.40;76.73;102524.94;10337148;28;19960;-80
2021/10/14 02:17:35;;;;;;;;;;;;;;;16.56;76.46;102517.47;10337189;28;19924;-79
2021/10/14 02:22:35;;;;;;;;;;;;;;;16.67;75.94;102515.03;10337335;28;19928;-78
2021/10/14 02:27:36;;;;;;;;;;;;;;;16.68;74.96;102510.41;10338016;28;20297;-80
2021/10/14 02:32:36;;;;;;;;;;;;;;;16.56;75.81;102509.25;10340528;28;19956;-79
2021/10/14 02:37:36;;;;;;;;;;;;;;;16.37;76.05;102503.44;10353166;28;19948;-77
2021/10/14 02:42:37;;;;;;;;;;;;;;;16.41;76.28;102499.25;10344844;28;20422;-78
2021/10/14 02:47:37;;;;;;;;;;;;;;;16.44;75.79;102493.41;10337253;28;19921;-79
2021/10/14 02:52:37;;;;;;;;;;;;;;;16.31;76.12;102498.75;10338890;28;19926;-79
2021/10/14 02:57:37;;;;;;;;;;;;;;;16.21;76.45;102510.03;10336822;28;19925;-79
2021/10/14 03:02:38;;;;;;;;;;;;;;;16.21;76.83;102503.72;10337200;28;19922;-79
2021/10/14 03:07:38;;;;;;;;;;;;;;;16.28;76.86;102499.16;10335793;28;19971;-81
2021/10/14 03:12:38;;;;;;;;;;;;;;;16.28;77.18;102499.16;10335079;28;19922;-79
2021/10/14 03:17:38;;;;;;;;;;;;;;;16.25;77.52;102496.81;10335291;28;20008;-79
2021/10/14 03:22:38;;;;;;;;;;;;;;;16.37;77.38;102489.78;10335810;28;20251;-79
2021/10/14 03:27:39;;;;;;;;;;;;;;;16.39;77.17;102490.41;10335019;28;19928;-79
2021/10/14 03:32:39;;;;;;;;;;;;;;;16.45;77.12;102495.09;10318016;28;19914;-79
2021/10/14 03:37:39;;;;;;;;;;;;;;;16.52;76.75;102489.66;10335051;28;20372;-79
2021/10/14 03:42:40;;;;;;;;;;;;;;;16.53;76.59;102494.09;10335060;28;19964;-78
2021/10/14 03:47:40;;;;;;;;;;;;;;;16.48;76.70;102497.41;10336379;28;19914;-79
2021/10/14 03:52:40;;;;;;;;;;;;;;;16.52;76.26;102500.59;10343528;28;19988;-79
2021/10/14 03:57:40;;;;;;;;;;;;;;;16.55;76.17;102486.53;10342558;28;19969;-79
2021/10/14 04:02:40;;;;;;;;;;;;;;;16.52;76.38;102490.50;10357241;28;19918;-78
2021/10/14 04:07:41;;;;;;;;;;;;;;;16.49;76.10;102499.09;10342019;28;20325;-78
2021/10/14 04:12:41;;;;;;;;;;;;;;;16.50;76.20;102498.09;10340777;28;19932;-79
2021/10/14 04:17:42;;;;;;;;;;;;;;;16.50;76.20;102498.09;10340470;28;20016;-78
2021/10/14 04:22:42;;;;;;;;;;;;;;;16.47;76.19;102500.38;10340221;28;20348;-79
2021/10/14 04:27:42;;;;;;;;;;;;;;;16.48;76.09;102493.84;10340033;28;19933;-79
2021/10/14 04:32:42;;;;;;;;;;;;;;;16.43;76.31;102486.25;10341853;28;19918;-79
2021/10/14 04:37:43;;;;;;;;;;;;;;;16.40;76.16;102481.19;10339305;28;19920;-80
2021/10/14 04:42:43;;;;;;;;;;;;;;;16.39;76.07;102479.47;10339677;28;19917;-78
2021/10/14 04:47:43;;;;;;;;;;;;;;;16.36;75.73;102479.84;10339191;28;19921;-79
2021/10/14 04:52:44;;;;;;;;;;;;;;;16.32;75.92;102481.31;10339298;28;19948;-79
2021/10/14 04:57:45;;;;;;;;;;;;;;;16.32;76.05;102480.47;10338567;28;20374;-81
2021/10/14 05:02:45;;;;;;;;;;;;;;;16.33;75.91;102480.25;10339778;28;20374;-79
2021/10/14 05:07:45;;;;;;;;;;;;;;;16.34;75.74;102481.97;10338893;28;19918;-79
2021/10/14 05:12:45;;;;;;;;;;;;;;;16.35;75.81;102485.53;10337895;28;19913;-80
2021/10/14 05:17:46;;;;;;;;;;;;;;;16.34;75.78;102492.06;10339537;28;19918;-79
2021/10/14 05:22:46;;;;;;;;;;;;;;;16.32;75.76;102484.03;10340424;28;19921;-80
2021/10/14 05:27:46;;;;;;;;;;;;;;;16.32;76.10;102473.09;10339384;28;19918;-80
2021/10/14 05:32:46;;;;;;;;;;;;;;;16.33;76.09;102477.53;10339341;28;19918;-80
2021/10/14 05:37:47;;;;;;;;;;;;;;;16.32;76.03;102477.72;10337420;28;19953;-80
2021/10/14 05:42:47;;;;;;;;;;;;;;;16.34;75.90;102473.75;10336476;28;19941;-80
2021/10/14 05:47:47;;;;;;;;;;;;;;;16.35;76.10;102471.88;10336769;28;19921;-80
2021/10/14 05:52:47;;;;;;;;;;;;;;;16.35;76.01;102474.59;10336917;28;19960;-80
2021/10/14 05:57:48;;;;;;;;;;;;;;;16.34;75.98;102472.91;10336627;28;19921;-81
2021/10/14 06:02:48;;;;;;;;;;;;;;;16.32;76.19;102473.09;10336456;28;19917;-80
2021/10/14 06:07:49;;;;;;;;;;;;;;;16.30;75.95;102469.72;10336507;28;19957;-80
2021/10/14 06:12:49;;;;;;;;;;;;;;;16.33;76.32;102471.22;10335461;28;20385;-80
2021/10/14 06:17:50;;;;;;;;;;;;;;;16.35;76.30;102469.13;10335646;28;20317;-80
2021/10/14 06:22:50;;;;;;;;;;;;;;;16.35;76.64;102459.03;10336019;28;20369;-80
2021/10/14 06:27:50;;;;;;;;;;;;;;;16.33;76.60;102457.53;10335274;28;19924;-80
2021/10/14 06:32:50;;;;;;;;;;;;;;;16.36;76.33;102454.41;10335529;28;20270;-80
2021/10/14 06:37:51;;;;;;;;;;;;;;;16.40;75.54;102453.84;10335345;28;20313;-81
2021/10/14 06:42:51;;;;;;;;;;;;;;;16.37;76.19;102451.50;10334421;28;19917;-81
2021/10/14 06:47:51;;;;;;;;;;;;;;;16.40;76.03;102453.84;10334450;28;19917;-81
2021/10/14 06:52:51;;;;;;;;;;;;;;;16.41;76.45;102460.16;10333486;28;20408;-80
2021/10/14 06:57:52;;;;;;;;;;;;;;;16.41;75.99;102454.69;10334725;28;20301;-80
2021/10/14 07:02:55;;;;;;;;;;;;;;;16.48;76.42;102455.56;10318256;28;19914;-80
2021/10/14 07:07:55;;;;;;;;;;;;;;;16.50;76.60;102464.44;10334877;28;19936;-81
2021/10/14 07:12:56;;;;;;;;;;;;;;;16.55;76.63;102461.09;10335833;28;19918;-81
2021/10/14 07:17:56;;;;;;;;;;;;;;;16.62;76.42;102456.50;10336304;28;20021;-81
2021/10/14 07:22:56;;;;;;;;;;;;;;;16.70;76.38;102448.16;10333609;28;19944;-81
2021/10/14 07:27:56;;;;;;;;;;;;;;;16.78;76.18;102452.63;10334900;28;19918;-81
2021/10/14 07:33:03;;;;;;;;;;;;;;;16.79;76.35;102449.72;10335061;28;19922;-81
2021/10/14 07:38:03;;;;;;;;;;;;;;;16.83;76.04;102451.00;10333912;28;20278;-81
2021/10/14 07:43:04;;;;;;;;;;;;;;;16.87;76.10;102457.75;10332975;28;19918;-82
2021/10/14 07:48:04;;;;;;;;;;;;;;;16.91;75.47;102442.63;10332221;28;19918;-80
2021/10/14 07:53:14;;;;;;;;;;;;;;;16.86;76.15;102441.53;10332423;28;19922;-81
2021/10/14 07:58:14;;;;;;;;;;;;;;;16.91;76.51;102445.38;10333309;28;19918;-81
2021/10/14 08:03:15;;;;;;;;;;;;;;;16.98;76.54;102444.56;10333196;28;19921;-80
2021/10/14 08:08:15;;;;;;;;;;;;;;;17.14;76.29;102456.00;10333365;28;19917;-81
2021/10/14 08:13:16;;;;;;;;;;;;;;;17.27;77.09;102455.22;10331395;28;19925;-81
2021/10/14 08:18:17;;;;;;;;;;;;;;;17.33;76.25;102451.69;10331570;28;19932;-81
2021/10/14 08:23:18;;;;;;;;;;;;;;;17.31;76.76;102459.22;10333561;28;20072;-80
2021/10/14 08:28:19;;;;;;;;;;;;;;;17.46;76.08;102450.03;10333369;28;19976;-80
2021/10/14 08:33:19;;;;;;;;;;;;;;;17.56;74.90;102456.81;10333647;28;19914;-82
2021/10/14 08:38:19;;;;;;;;;;;;;;;17.60;76.45;102447.13;10339515;28;20001;-81
2021/10/14 08:43:19;;;;;;;;;;;;;;;17.85;75.65;102458.38;10340040;28;20374;-81
2021/10/14 08:48:20;;;;;;;;;;;;;;;18.06;75.73;102448.28;10340467;28;19953;-80
2021/10/14 08:53:20;;;;;;;;;;;;;;;18.12;76.02;102458.41;10323719;28;20012;-81
2021/10/14 08:58:20;;;;;;;;;;;;;;;18.33;75.82;102444.50;10341427;28;20417;-83
2021/10/14 09:03:25;;;;;;;;;;;;;;;18.42;76.38;102449.78;10362894;28;19924;-79
2021/10/14 09:08:32;;;;;;;;;;;;;;;18.51;75.56;102448.50;10367531;28;19914;-79
2021/10/14 09:13:32;;;;;;;;;;;;;;;18.67;75.59;102445.31;10340162;28;19914;-80
2021/10/14 09:19:03;;;;;;;;;;;;;;;18.43;75.01;102444.06;10363353;28;19920;-78
2021/10/14 09:24:03;;;;;;;;;;;;;;;18.54;75.47;102451.66;10356694;28;19922;-80
2021/10/14 09:29:07;;;;;;;;;;;;;;;19.25;76.22;102447.28;10349179;28;20431;-80
2021/10/14 09:34:07;;;;;;;;;;;;;;;19.61;75.78;102440.34;10343717;28;19936;-81
2021/10/14 09:39:07;;;;;;;;;;;;;;;19.70;74.39;102434.38;10338229;28;19917;-81
2021/10/14 09:44:13;;;;;;;;;;;;;;;19.35;70.62;102438.56;10338806;28;20027;-80
2021/10/14 09:49:14;;;;;;;;;;;;;;;19.70;74.54;102434.38;10339910;28;20366;-80
2021/10/14 09:54:15;;;;;;;;;;;;;;;20.16;74.32;102427.69;10336273;28;19922;-80
2021/10/14 09:59:15;;;;;;;;;;;;;;;20.19;68.97;102426.41;10336838;28;19922;-79
2021/10/14 10:04:16;;;;;;;;;;;;;;;20.29;74.03;102426.72;10336258;28;19964;-80
2021/10/14 10:09:17;;;;;;;;;;;;;;;20.40;72.93;102434.25;10337563;28;19917;-81
2021/10/14 10:14:22;;;;;;;;;;;;;;;21.05;69.63;102425.53;10337250;28;19917;-81
2021/10/14 10:19:42;;;;;;;;;;;;;;;21.12;71.11;102415.31;10336552;28;19921;-80
2021/10/14 10:24:43;;;;;;;;;;;;;;;21.35;72.46;102408.25;10335679;28;19917;-81
2021/10/14 10:29:43;;;;;;;;;;;;;;;20.81;70.97;102405.28;10335309;28;19918;-81
2021/10/14 10:39:50;;;;;;;;;;;;;;;20.10;71.82;102412.13;10334716;28;19921;-80
2021/10/14 10:44:50;;;;;;;;;;;;;;;19.92;71.86;102401.88;10333746;28;20377;-81
2021/10/14 10:49:54;;;;;;;;;;;;;;;19.87;70.96;102404.44;10334344;28;19913;-82
2021/10/14 10:54:54;;;;;;;;;;;;;;;19.92;72.99;102404.63;10333891;28;20263;-81
2021/10/14 10:59:55;;;;;;;;;;;;;;;19.85;72.31;102398.34;10333667;28;19922;-81
2021/10/14 11:04:55;;;;;;;;;;;;;;;19.71;69.52;102383.84;10334764;28;20497;-82
2021/10/14 11:09:55;;;;;;;;;;;;;;;19.63;70.99;102391.50;10334240;28;19913;-81
2021/10/14 11:14:55;;;;;;;;;;;;;;;19.52;73.09;102390.28;10335438;28;20377;-81
2021/10/14 11:20:05;;;;;;;;;;;;;;;19.50;72.39;102384.19;10335461;28;19930;-81
2021/10/14 11:25:12;;;;;;;;;;;;;;;19.63;73.33;102375.84;10334313;28;19924;-82
2021/10/14 11:30:17;;;;;;;;;;;;;;;19.50;73.38;102376.78;10334972;28;20024;-82
2021/10/14 11:35:17;;;;;;;;;;;;;;;19.51;73.48;102363.88;10335420;28;19925;-82
2021/10/14 11:40:33;;;;;;;;;;;;;;;19.60;73.32;102357.06;10335096;28;19922;-82
2021/10/14 11:45:34;;;;;;;;;;;;;;;19.74;73.35;102346.81;10336464;28;19924;-81
2021/10/14 11:50:35;;;;;;;;;;;;;;;19.84;73.88;102349.91;10334233;28;19964;-81
2021/10/14 11:55:35;;;;;;;;;;;;;;;19.63;73.08;102342.88;10334167;28;19961;-82
2021/10/14 12:00:35;;;;;;;;;;;;;;;19.61;72.99;102336.75;10335570;28;20384;-82
2021/10/14 12:05:37;;;;;;;;;;;;;;;19.48;73.39;102325.84;10334601;28;19941;-81
2021/10/14 12:10:37;;;;;;;;;;;;;;;19.34;73.22;102338.84;10339691;28;20334;-81
2021/10/14 12:15:38;;;;;;;;;;;;;;;19.31;73.04;102321.97;10342831;28;19949;-81
2021/10/14 12:20:38;;;;;;;;;;;;;;;19.49;72.75;102319.28;10340359;28;19957;-82
2021/10/14 12:25:39;;;;;;;;;;;;;;;19.44;73.04;102308.13;10340415;28;20270;-81
2021/10/14 12:30:39;;;;;;;;;;;;;;;19.37;73.48;102299.94;10339211;28;19920;-81
2021/10/14 12:36:01;;;;;;;;;;;;;;;19.32;72.85;102294.25;10340220;28;19918;-82
2021/10/14 12:41:05;;;;;;;;;;;;;;;19.08;72.28;102292.31;10338991;28;19913;-82
2021/10/14 12:46:20;;;;;;;;;;;;;;;19.49;72.90;102289.91;10339555;28;20374;-81
2021/10/14 12:51:28;;;;;;;;;;;;;;;19.49;71.18;102283.56;10339134;28;19925;-81
2021/10/14 12:56:34;;;;;;;;;;;;;;;19.57;72.42;102277.81;10338694;28;19948;-81
2021/10/14 13:01:35;;;;;;;;;;;;;;;19.57;72.75;102268.72;10339282;28;19917;-81
2021/10/14 13:06:35;;;;;;;;;;;;;;;19.63;72.48;102274.16;10338674;28;19918;-81
2021/10/14 13:11:35;;;;;;;;;;;;;;;19.54;73.09;102264.53;10340229;28;19918;-81
2021/10/14 13:16:35;;;;;;;;;;;;;;;19.54;72.24;102261.78;10339014;28;19918;-81
2021/10/14 13:21:39;;;;;;;;;;;;;;;19.60;72.51;102260.88;10338154;28;20008;-81
2021/10/14 13:26:40;;;;;;;;;;;;;;;19.22;69.70;102256.31;10339842;28;19921;-82
2021/10/14 13:31:40;;;;;;;;;;;;;;;19.08;71.69;102254.72;10340001;28;19918;-82
2021/10/14 13:36:41;;;;;;;;;;;;;;;19.15;73.53;102250.03;10337725;28;19913;-82
2021/10/14 13:41:41;;;;;;;;;;;;;;;19.04;72.19;102243.31;10337612;28;19918;-84
2021/10/14 13:46:41;;;;;;;;;;;;;;;19.12;73.81;102238.66;10338539;28;20351;-85
2021/10/14 13:51:41;;;;;;;;;;;;;;;18.97;73.39;102233.47;10339589;28;20342;-86
2021/10/14 13:56:42;;;;;;;;;;;;;;;19.39;73.64;102239.28;10338223;28;20362;-85
2021/10/14 14:01:43;;;;;;;;;;;;;;;19.95;72.36;102210.88;10338691;28;20009;-86
2021/10/14 14:06:43;;;;;;;;;;;;;;;20.43;71.10;102208.19;10338849;28;19918;-86
2021/10/14 14:11:45;;;;;;;;;;;;;;;20.64;71.31;102204.13;10336989;28;19917;-88
2021/10/14 14:16:45;;;;;;;;;;;;;;;20.15;71.44;102197.72;10338600;28;19918;-89
2021/10/14 14:21:47;;;;;;;;;;;;;;;20.03;71.96;102191.31;10321299;28;19930;-89
2021/10/14 14:26:48;;;;;;;;;;;;;;;19.82;71.62;102189.88;10338595;28;19921;-90
2021/10/14 14:31:48;;;;;;;;;;;;;;;19.36;70.41;102191.13;10337032;28;19914;-89
2021/10/14 14:36:48;;;;;;;;;;;;;;;19.16;72.22;102183.06;10337416;28;19941;-90
2021/10/14 14:41:49;;;;;;;;;;;;;;;19.12;72.79;102179.06;10336391;28;20378;-89
2021/10/14 14:46:52;;;;;;;;;;;;;;;19.03;73.04;102170.28;10337508;28;19914;-88
2021/10/14 14:51:52;;;;;;;;;;;;;;;18.90;72.76;102169.53;10336040;28;20381;-90
2021/10/14 14:56:53;;;;;;;;;;;;;;;18.81;73.21;102163.47;10334344;28;19922;-89
2021/10/14 15:01:53;;;;;;;;;;;;;;;18.89;73.17;102163.22;10318604;28;20416;-90
2021/10/14 15:06:53;;;;;;;;;;;;;;;18.62;71.71;102154.25;10334544;28;20343;-89
2021/10/14 15:11:53;;;;;;;;;;;;;;;18.41;73.28;102152.72;10335502;28;19921;-90
2021/10/14 15:16:54;;;;;;;;;;;;;;;18.48;73.59;102150.78;10335470;28;19972;-90
2021/10/14 15:21:54;;;;;;;;;;;;;;;18.39;73.66;102157.56;10335640;28;19953;-90
2021/10/14 15:26:54;;;;;;;;;;;;;;;18.32;73.52;102152.13;10335224;28;19914;-90
2021/10/14 15:31:55;;;;;;;;;;;;;;;18.07;74.04;102145.69;10334540;28;19914;-89
2021/10/14 15:36:55;;;;;;;;;;;;;;;18.03;74.40;102144.47;10318692;28;19929;-91
2021/10/14 15:41:57;;;;;;;;;;;;;;;18.05;74.32;102140.41;10318578;28;20008;-90
2021/10/14 15:46:57;;;;;;;;;;;;;;;17.86;74.66;102144.91;10344410;28;19922;-90
2021/10/14 15:51:58;;;;;;;;;;;;;;;17.66;74.28;102125.75;10344854;28;20309;-91
2021/10/14 15:56:58;;;;;;;;;;;;;;;17.60;74.66;102117.56;10327102;28;19933;-91
2021/10/14 16:01:58;;;;;;;;;;;;;;;17.60;74.64;102112.91;10344180;28;19964;-91
2021/10/14 16:07:03;;;;;;;;;;;;;;;17.62;74.47;102105.34;10344221;28;19924;-89
2021/10/14 16:12:04;;;;;;;;;;;;;;;17.67;74.56;102110.16;10347140;28;19921;-92
2021/10/14 16:17:04;;;;;;;;;;;;;;;17.62;75.30;102108.09;10364431;28;19925;-91
2021/10/14 16:22:04;;;;;;;;;;;;;;;17.48;75.01;102100.09;10389575;28;19905;-92
2021/10/14 16:27:07;;;;;;;;;;;;;;;17.57;74.08;102098.81;10384217;28;19924;-92
2021/10/14 16:32:10;;;;;;;;;;;;;;;17.43;75.07;102103.50;10376510;28;19917;-90
2021/10/14 16:37:11;;;;;;;;;;;;;;;17.40;74.45;102107.50;10347076;28;20053;-91
2021/10/14 16:42:11;;;;;;;;;;;;;;;17.44;74.86;102094.22;10341804;28;20008;-88
2021/10/14 16:47:11;;;;;;;;;;;;;;;17.36;74.40;102089.00;10341381;28;19925;-90
2021/10/14 16:52:12;;;;;;;;;;;;;;;17.21;75.98;102083.72;10324628;28;19922;-92
2021/10/14 16:57:12;;;;;;;;;;;;;;;17.33;75.91;102076.56;10341175;28;19929;-91
2021/10/14 17:02:12;;;;;;;;;;;;;;;17.25;76.12;102084.97;10340886;28;20286;-92
2021/10/14 17:07:12;;;;;;;;;;;;;;;17.21;75.75;102072.78;10341336;28;19921;-92
2021/10/14 17:12:13;;;;;;;;;;;;;;;17.29;75.97;102069.81;10338667;28;19914;-91
2021/10/14 17:17:14;;;;;;;;;;;;;;;17.32;76.10;102063.91;10338435;28;20005;-91
2021/10/14 17:37:55;;;;;;;;;;;;;;;16.99;75.48;102057.66;10340618;28;19916;-92
2021/10/14 17:42:58;;;;;;;;;;;;;;;16.90;75.39;102057.03;10338960;28;19918;-92
2021/10/14 17:47:58;;;;;;;;;;;;;;;16.93;76.45;102049.22;10338269;28;19963;-91
2021/10/14 17:52:59;;;;;;;;;;;;;;;17.02;76.16;102051.75;10338514;28;19921;-92
2021/10/14 17:58:00;;;;;;;;;;;;;;;17.07;76.33;102035.53;10340549;28;19996;-91
2021/10/14 18:03:08;;;;;;;;;;;;;;;17.13;76.74;102034.69;10340342;28;20001;-91
2021/10/14 18:35:01;;;;;;;;;;;;;;;16.66;75.64;101998.31;10337565;28;20008;-93
2021/10/14 18:39:50;;;;;;;;;;;;;;;16.68;75.95;101996.19;10334421;28;20431;-91
2021/10/14 18:44:51;;;;;;;;;;;;;;;16.80;76.09;101991.78;10336569;28;19918;-91
2021/10/14 18:49:51;;;;;;;;;;;;;;;16.87;76.67;101989.88;10335038;28;19917;-91
2021/10/14 18:54:52;;;;;;;;;;;;;;;16.95;76.20;101986.94;10335934;28;19922;-92
2021/10/14 19:15:39;;;;;;;;;;;;;;;17.16;76.38;101974.03;10336679;28;19972;-92
2021/10/14 19:21:37;;;;;;;;;;;;;;;17.26;76.24;101970.84;10335069;28;19975;-92
2021/10/14 20:24:28;;;;;;;;;;;;;;;17.56;75.95;101935.56;10334861;28;20354;-92
2021/10/14 20:29:28;;;;;;;;;;;;;;;17.54;75.49;101927.53;10335942;28;19918;-91
2021/10/14 20:39:38;;;;;;;;;;;;;;;17.47;75.66;101917.69;10342406;28;20274;-87
2021/10/14 20:44:39;;;;;;;;;;;;;;;17.46;75.13;101907.81;10341966;28;20012;-91
2021/10/14 20:49:46;;;;;;;;;;;;;;;17.41;75.13;101908.44;10339972;28;20389;-87
2021/10/14 21:05:08;;;;;;;;;;;;;;;17.15;76.38;101901.19;10344032;28;20004;-90
2021/10/14 21:10:08;;;;;;;;;;;;;;;17.13;76.39;101900.56;10341905;28;19960;-89
2021/10/14 21:15:08;;;;;;;;;;;;;;;17.04;76.37;101889.03;10340759;28;19913;-91
2021/10/14 21:20:09;;;;;;;;;;;;;;;17.03;76.33;101878.28;10339613;28;19937;-89
2021/10/14 21:25:10;;;;;;;;;;;;;;;17.10;76.38;101870.88;10338532;28;19941;-92
2021/10/14 21:40:35;;;;;;;;;;;;;;;17.16;76.38;101839.91;10339261;28;19918;-93
2021/10/14 21:45:37;;;;;;;;;;;;;;;17.00;76.90;101835.78;10341338;28;20377;-93
2021/10/14 21:50:37;;;;;;;;;;;;;;;16.95;75.98;101828.25;10338563;28;19922;-92
2021/10/14 21:55:37;;;;;;;;;;;;;;;16.67;77.64;101831.25;10339790;28;19972;-91
2021/10/14 22:00:37;;;;;;;;;;;;;;;16.81;77.61;101826.59;10338566;28;19918;-92
2021/10/14 22:05:38;;;;;;;;;;;;;;;16.69;77.69;101822.84;10339813;28;20440;-91
2021/10/14 22:10:46;;;;;;;;;;;;;;;16.87;74.33;101823.00;10339458;28;19917;-92
2021/10/14 22:15:46;;;;;;;;;;;;;;;16.86;76.03;101796.69;10339546;28;20366;-92
2021/10/14 22:20:47;;;;;;;;;;;;;;;16.82;77.12;101787.25;10338885;28;20023;-94
2021/10/14 22:25:47;;;;;;;;;;;;;;;16.72;77.45;101784.97;10337286;28;19914;-91
2021/10/14 22:30:47;;;;;;;;;;;;;;;16.59;77.87;101784.16;10338660;28;19918;-92
2021/10/14 22:35:47;;;;;;;;;;;;;;;16.61;77.56;101779.31;10337460;28;20398;-91
2021/10/14 22:40:48;;;;;;;;;;;;;;;16.60;77.46;101766.72;10337546;28;19929;-91
2021/10/14 22:45:48;;;;;;;;;;;;;;;16.71;77.13;101763.28;10337716;28;20366;-92
2021/10/14 22:50:48;;;;;;;;;;;;;;;16.64;77.38;101763.31;10338491;28;20281;-91
2021/10/14 22:55:48;;;;;;;;;;;;;;;16.54;77.60;101745.69;10340851;28;20023;-91
2021/10/14 23:00:49;;;;;;;;;;;;;;;16.45;77.92;101734.16;10352793;28;19921;-89
2021/10/14 23:05:49;;;;;;;;;;;;;;;16.42;78.00;101721.75;10383135;28;19902;-90
2021/10/14 23:10:49;;;;;;;;;;;;;;;16.37;78.01;101720.72;10369587;28;19957;-91
2021/10/14 23:15:49;;;;;;;;;;;;;;;16.42;77.63;101723.66;10355832;28;19925;-91
2021/10/14 23:20:50;;;;;;;;;;;;;;;16.34;77.58;101727.47;10337465;28;20348;-91
2021/10/14 23:25:50;;;;;;;;;;;;;;;16.43;77.76;101725.31;10336572;28;19918;-91
2021/10/14 23:30:50;;;;;;;;;;;;;;;16.50;77.68;101721.53;10334995;28;19921;-90
2021/10/14 23:35:51;;;;;;;;;;;;;;;16.39;77.58;101702.22;10335517;28;19918;-90
2021/10/14 23:40:51;;;;;;;;;;;;;;;16.46;77.65;101703.00;10334264;28;20389;-91
2021/10/14 23:45:51;;;;;;;;;;;;;;;16.53;77.24;101703.84;10336171;28;19956;-89
2021/10/14 23:50:52;;;;;;;;;;;;;;;16.33;78.08;101703.06;10336248;28;19952;-90
2021/10/14 23:55:52;;;;;;;;;;;;;;;16.37;77.84;101687.91;10335567;28;20413;-91
